AGROMETEOROLOŠKI PORTAL
Vinorodna pokrajina

Temelj dobrega kmetovanja.

Pregled podatkov za lokacijo Črnova (Gradišnik), meteorološka postaja 516314

Pregled senzorjev na lokaciji

ID Ime Zadnja
vrednost
Datum in čas
meritve
(lokalni čas)
Tip
senzorja
6958 Omočenost lista (1,5 m) (U) 0 U 15.4.2024 01:30 A730WET
6959 Padavine (mm) 0 mm 15.4.2024 01:30 Generic 0.2 mm
6957 Relativna zračna vlaga (2 m) (%RH) 87 %RH 15.4.2024 01:30 50YA
6956 Temperatura (2 m) (°C) 11 °C 15.4.2024 01:30 50YA

Pregled podatkov zadnjih 24 ur

Zap.
št.
Datum in čas
(lokalni čas)
Črnova (Gradišnik)
Omočenost
lista
(1,5
m)
Padavine Relativna
zračna
vlaga
(2
m)
Temperatura
(2
m)
1 15.4.2024 01:30 0 0 86,6 11
2 15.4.2024 01:00 0 0 84,4 11
3 15.4.2024 00:30 0 0 82,7 11,1
4 15.4.2024 00:00 0 0 79,1 12
5 14.4.2024 23:30 0 0 78,7 12,3
6 14.4.2024 23:00 0 0 77,5 12,5
7 14.4.2024 22:30 0 0 77,1 13
8 14.4.2024 22:00 0 0 77,1 13,5
9 14.4.2024 21:30 0 0 71 14,8
10 14.4.2024 21:00 0 0 68,2 15,9
11 14.4.2024 20:30 0 0 65,6 17,1
12 14.4.2024 20:00 0 0 60,6 18,8
13 14.4.2024 19:30 0 0 48 22,8
14 14.4.2024 19:00 0 0 39 26
15 14.4.2024 18:30 0 0 37 27,2
16 14.4.2024 18:00 0 0 35,2 27,8
17 14.4.2024 17:30 0 0 34,8 28,3
18 14.4.2024 17:00 0 0 34 28,6
19 14.4.2024 16:30 0 0 34,8 28,9
20 14.4.2024 16:00 0 0 37,5 28,4
21 14.4.2024 15:30 0 0 38,1 28,2
22 14.4.2024 15:00 0 0 39,8 28
23 14.4.2024 14:30 0 0 39,2 27,8
24 14.4.2024 14:00 0 0 42 27,6
25 14.4.2024 13:30 0 0 44,6 26,8
26 14.4.2024 13:00 0 0 44,7 26,4
27 14.4.2024 12:30 0 0 45,4 25,2
28 14.4.2024 12:00 0 0 45,3 24,5
29 14.4.2024 11:30 0 0 46,9 23,6
30 14.4.2024 11:00 0 0 47,5 22,4
31 14.4.2024 10:30 0 0 49 21,8
32 14.4.2024 10:00 0 0 49,2 21
33 14.4.2024 09:30 0 0 54,3 19,8
34 14.4.2024 09:00 0 0 58,9 18,4
35 14.4.2024 08:30 0 0 60,5 17,6
36 14.4.2024 08:00 0 0 69 15,5
37 14.4.2024 07:30 0 0 77,5 13,6
38 14.4.2024 07:00 0 0 82,7 12,4
39 14.4.2024 06:30 0 0 86,5 11,8
40 14.4.2024 06:00 0 0 87,1 11,9
41 14.4.2024 05:30 3 0 90,5 11,3
42 14.4.2024 05:00 3 0 89,9 11,6
43 14.4.2024 04:30 10 0 96,1 11
44 14.4.2024 04:00 10 0 95,2 10,9
45 14.4.2024 03:30 7 0 92,7 11,4
46 14.4.2024 03:00 8 0 88,7 12,5